Time;durP1;ratioP1;P1;durP2;ratioP2;P2;SDS_P1;SDS_P2;PMS_P1;PMS_P2;Temp;Humidity;BMP_temperature;BMP_pressure;BME280_temperature;BME280_humidity;BME280_pressure;Samples;Min_cycle;Max_cycle;Signal;HPM_P1;HPM_P2
2022/10/07 00:01:12;;;;;;;2.63;2.47;;;23.80;67.40;;;;;;4918395;29;20443;-80
2022/10/07 00:03:40;;;;;;;2.40;2.20;;;23.80;67.40;;;;;;4918338;29;20472;-79
2022/10/07 00:06:12;;;;;;;2.47;2.23;;;23.80;67.40;;;;;;4918025;29;20451;-80
2022/10/07 00:08:42;;;;;;;2.23;2.13;;;23.80;67.40;;;;;;4917519;29;21408;-82
2022/10/07 00:11:12;;;;;;;2.13;2.03;;;23.80;67.40;;;;;;4899242;29;20465;-79
2022/10/07 00:13:43;;;;;;;2.10;2.00;;;23.80;67.40;;;;;;4898394;29;20427;-78
2022/10/07 00:16:13;;;;;;;2.10;2.00;;;23.70;67.40;;;;;;4915435;29;20456;-78
2022/10/07 00:18:42;;;;;;;2.10;2.00;;;23.80;67.40;;;;;;4905250;29;20578;-80
2022/10/07 00:21:14;;;;;;;3.23;2.53;;;23.80;67.40;;;;;;4913936;29;20457;-79
2022/10/07 00:23:44;;;;;;;2.33;2.23;;;23.80;67.40;;;;;;4916844;29;20458;-78
2022/10/07 00:26:14;;;;;;;2.10;2.00;;;23.80;67.40;;;;;;4917467;29;20431;-79
2022/10/07 00:28:44;;;;;;;2.13;2.03;;;23.70;67.40;;;;;;4916418;29;20474;-79
2022/10/07 00:31:14;;;;;;;2.10;2.00;;;23.70;67.40;;;;;;4917200;29;20475;-79
2022/10/07 00:33:43;;;;;;;3.10;2.40;;;23.70;67.40;;;;;;4917378;29;20452;-80
2022/10/07 00:36:13;;;;;;;2.50;2.30;;;23.70;67.40;;;;;;4917252;29;20450;-79
2022/10/07 00:38:45;;;;;;;1.90;1.80;;;23.70;67.40;;;;;;4915919;29;20514;-80
2022/10/07 00:41:18;;;;;;;2.80;2.27;;;23.70;67.40;;;;;;4917377;29;20503;-80
2022/10/07 00:43:48;;;;;;;1.90;1.80;;;23.70;67.40;;;;;;4905857;29;20450;-79
2022/10/07 00:46:28;;;;;;;2.97;2.77;;;23.70;67.40;;;;;;4917042;29;20499;-79
2022/10/07 00:48:59;;;;;;;2.77;2.57;;;23.70;67.40;;;;;;4916702;29;20482;-79
2022/10/07 00:51:27;;;;;;;2.23;2.13;;;23.70;67.40;;;;;;4897868;29;20468;-79
2022/10/07 00:53:56;;;;;;;2.60;2.40;;;23.70;67.40;;;;;;4898717;29;20839;-79
2022/10/07 00:56:26;;;;;;;1.90;1.80;;;23.70;67.40;;;;;;4910457;29;20449;-79
2022/10/07 00:58:58;;;;;;;2.43;2.23;;;23.70;67.40;;;;;;4916888;29;20463;-80
2022/10/07 01:01:26;;;;;;;2.90;2.70;;;23.70;67.40;;;;;;4917277;29;20786;-79
2022/10/07 01:03:55;;;;;;;2.00;1.90;;;23.70;67.40;;;;;;4917464;29;20471;-79
2022/10/07 01:06:25;;;;;;;2.13;2.03;;;23.70;67.50;;;;;;4918755;29;20518;-79
2022/10/07 01:08:54;;;;;;;2.17;2.07;;;23.70;67.40;;;;;;4917037;29;20467;-81
2022/10/07 01:11:38;;;;;;;2.20;1.90;;;23.70;67.40;;;;;;4916217;29;20571;-81
2022/10/07 01:20:23;;;;;;;2.23;2.13;;;23.70;67.40;;;;;;4880759;23;20515;-77
2022/10/07 01:23:10;;;;;;;2.50;2.30;;;23.70;67.40;;;;;;4863377;29;20453;-78
2022/10/07 01:25:57;;;;;;;2.50;2.30;;;23.70;67.40;;;;;;4869346;29;20968;-77
2022/10/07 01:28:33;;;;;;;2.07;1.97;;;23.70;67.50;;;;;;4873672;29;20465;-78
2022/10/07 01:31:06;;;;;;;2.10;2.00;;;23.70;67.50;;;;;;4858162;29;20469;-78
2022/10/07 01:33:36;;;;;;;2.13;2.03;;;23.70;67.40;;;;;;4858985;29;20446;-77
2022/10/07 01:36:10;;;;;;;2.10;2.00;;;23.70;67.40;;;;;;4871026;29;20465;-78
2022/10/07 01:38:43;;;;;;;2.07;1.97;;;23.70;67.40;;;;;;4876597;29;20439;-78
2022/10/07 01:41:14;;;;;;;2.20;2.00;;;23.70;67.40;;;;;;4876045;29;20463;-78
2022/10/07 01:43:45;;;;;;;2.07;1.97;;;23.70;67.40;;;;;;4876634;29;20489;-77
2022/10/07 01:46:18;;;;;;;2.23;2.03;;;23.70;67.40;;;;;;4875849;29;20480;-78
2022/10/07 01:48:46;;;;;;;2.27;2.13;;;23.70;67.40;;;;;;4876809;29;20460;-77
2022/10/07 01:51:18;;;;;;;2.47;2.37;;;23.70;67.50;;;;;;4872374;29;20580;-77
2022/10/07 01:53:54;;;;;;;3.03;2.10;;;23.70;67.50;;;;;;4873142;29;20468;-77
2022/10/07 01:56:43;;;;;;;2.97;2.20;;;23.70;67.40;;;;;;4876014;29;20461;-78
2022/10/07 01:59:50;;;;;;;2.07;1.97;;;23.70;67.40;;;;;;4876774;29;20472;-77
2022/10/07 02:02:32;;;;;;;2.67;1.97;;;23.70;67.40;;;;;;4857343;29;20461;-77
2022/10/07 02:05:11;;;;;;;1.80;1.70;;;23.60;67.50;;;;;;4857278;29;20489;-78
2022/10/07 02:07:47;;;;;;;1.70;1.60;;;23.60;67.50;;;;;;4880008;29;20528;-77
2022/10/07 02:10:24;;;;;;;2.07;1.97;;;23.60;67.50;;;;;;4875108;29;20515;-77
2022/10/07 02:12:57;;;;;;;2.20;2.00;;;23.60;67.50;;;;;;4876661;29;20481;-78
2022/10/07 02:15:36;;;;;;;2.10;2.00;;;23.60;67.50;;;;;;4876354;29;21037;-77
2022/10/07 02:18:08;;;;;;;2.00;1.90;;;23.70;67.40;;;;;;4874857;29;20489;-77
2022/10/07 02:20:38;;;;;;;1.97;1.87;;;23.60;67.40;;;;;;4872170;29;20501;-77
2022/10/07 02:23:10;;;;;;;2.07;1.90;;;23.60;67.40;;;;;;4877873;29;20458;-77
2022/10/07 02:25:45;;;;;;;2.00;1.90;;;23.60;67.40;;;;;;4891999;29;20470;-77
2022/10/07 02:28:16;;;;;;;2.30;2.10;;;23.60;67.50;;;;;;4891337;29;20491;-77
2022/10/07 02:30:48;;;;;;;2.40;2.30;;;23.60;67.40;;;;;;4875380;29;20454;-77
2022/10/07 02:33:18;;;;;;;1.50;1.40;;;23.60;67.40;;;;;;4875216;29;20489;-77
2022/10/07 02:35:51;;;;;;;1.70;1.60;;;23.60;67.40;;;;;;4873722;29;20826;-77
2022/10/07 02:38:19;;;;;;;2.20;2.10;;;23.60;67.40;;;;;;4890077;29;20610;-78
2022/10/07 02:40:55;;;;;;;2.07;1.97;;;23.60;67.40;;;;;;4894928;29;20457;-77
2022/10/07 02:43:30;;;;;;;2.13;2.00;;;23.60;67.50;;;;;;4881350;29;20449;-78
2022/10/07 02:46:06;;;;;;;1.90;1.80;;;23.60;67.50;;;;;;4895431;29;20458;-77
2022/10/07 02:48:40;;;;;;;1.90;1.80;;;23.60;67.40;;;;;;4892901;29;20480;-79
2022/10/07 02:51:17;;;;;;;1.53;1.40;;;23.60;67.40;;;;;;4875090;29;20548;-79
2022/10/07 02:53:51;;;;;;;1.83;1.73;;;23.60;67.50;;;;;;4860525;29;20571;-78
2022/10/07 02:56:22;;;;;;;1.77;1.67;;;23.60;67.50;;;;;;4860637;29;20449;-77
2022/10/07 02:58:51;;;;;;;2.47;1.80;;;23.60;67.40;;;;;;4877094;29;20467;-78
2022/10/07 03:01:25;;;;;;;2.50;2.30;;;23.60;67.40;;;;;;4877422;29;20470;-78
2022/10/07 03:03:53;;;;;;;1.63;1.53;;;23.60;67.40;;;;;;4879542;29;20448;-79
2022/10/07 03:06:24;;;;;;;1.63;1.53;;;23.60;67.40;;;;;;4879242;29;20459;-78
2022/10/07 03:08:55;;;;;;;1.60;1.50;;;23.60;67.40;;;;;;4879112;29;20465;-77
2022/10/07 03:11:24;;;;;;;1.90;1.80;;;23.60;67.50;;;;;;4879266;29;20465;-78
2022/10/07 03:13:52;;;;;;;1.53;1.43;;;23.60;67.40;;;;;;4879637;29;20512;-78
2022/10/07 03:16:22;;;;;;;1.90;1.80;;;23.60;67.50;;;;;;4894216;29;20556;-77
2022/10/07 03:18:50;;;;;;;1.90;1.80;;;23.60;67.40;;;;;;4891669;29;20513;-78
2022/10/07 03:21:33;;;;;;;1.87;1.77;;;23.60;67.40;;;;;;4878134;29;20472;-78
2022/10/07 03:24:04;;;;;;;2.30;2.10;;;23.60;67.40;;;;;;4892439;29;20472;-78
2022/10/07 03:26:38;;;;;;;1.97;1.87;;;23.60;67.50;;;;;;4893724;29;20549;-78
2022/10/07 03:29:07;;;;;;;1.70;1.60;;;23.60;67.40;;;;;;4879168;29;20529;-78
2022/10/07 03:31:37;;;;;;;1.70;1.60;;;23.60;67.40;;;;;;4894583;29;20544;-78
2022/10/07 03:34:06;;;;;;;1.80;1.53;;;23.60;67.40;;;;;;4878941;29;20815;-77
2022/10/07 03:36:35;;;;;;;1.50;1.40;;;23.60;67.40;;;;;;4893231;29;20488;-77
2022/10/07 03:39:05;;;;;;;1.80;1.70;;;23.60;67.40;;;;;;4873811;29;20481;-77
2022/10/07 03:41:33;;;;;;;1.93;1.83;;;23.50;67.40;;;;;;4885187;29;20557;-77
2022/10/07 03:44:03;;;;;;;1.70;1.60;;;23.50;67.50;;;;;;4892306;29;20470;-78
2022/10/07 03:46:31;;;;;;;1.70;1.60;;;23.60;67.40;;;;;;4877505;29;20464;-77
2022/10/07 03:49:02;;;;;;;2.10;2.00;;;23.60;67.50;;;;;;4875619;29;21001;-77
2022/10/07 03:51:30;;;;;;;1.70;1.60;;;23.60;67.50;;;;;;4877051;29;20567;-78
2022/10/07 03:54:00;;;;;;;2.17;1.80;;;23.50;67.40;;;;;;4876215;29;20932;-78
2022/10/07 03:56:32;;;;;;;1.60;1.50;;;23.50;67.40;;;;;;4877551;29;21166;-77
2022/10/07 03:59:00;;;;;;;1.60;1.47;;;23.50;67.40;;;;;;4862690;29;20459;-78
2022/10/07 04:01:30;;;;;;;1.87;1.73;;;23.50;67.40;;;;;;4860117;29;20469;-78
2022/10/07 04:04:01;;;;;;;1.80;1.70;;;23.50;67.40;;;;;;4875604;29;20541;-77
2022/10/07 04:06:33;;;;;;;1.70;1.60;;;23.50;67.40;;;;;;4882242;29;20465;-78
2022/10/07 04:09:06;;;;;;;1.87;1.77;;;23.50;67.40;;;;;;4877435;29;20500;-78
2022/10/07 04:11:34;;;;;;;1.97;1.80;;;23.50;67.40;;;;;;4894439;29;20468;-78
2022/10/07 04:14:03;;;;;;;2.00;1.80;;;23.50;67.50;;;;;;4877839;29;20514;-79
2022/10/07 04:16:32;;;;;;;1.50;1.40;;;23.50;67.40;;;;;;4871360;29;20465;-78
2022/10/07 04:19:08;;;;;;;2.17;1.70;;;23.50;67.40;;;;;;4889734;29;20563;-79
2022/10/07 04:21:36;;;;;;;2.03;1.93;;;23.50;67.40;;;;;;4873242;29;20834;-77
2022/10/07 04:24:05;;;;;;;1.93;1.83;;;23.50;67.40;;;;;;4876820;29;20556;-78
2022/10/07 04:26:33;;;;;;;1.87;1.77;;;23.50;67.40;;;;;;4875041;29;20469;-78
2022/10/07 04:29:02;;;;;;;1.80;1.70;;;23.50;67.40;;;;;;4877661;29;20470;-78
2022/10/07 04:31:31;;;;;;;1.93;1.60;;;23.50;67.40;;;;;;4873554;29;20486;-80
2022/10/07 04:34:03;;;;;;;1.40;1.30;;;23.50;67.40;;;;;;4890272;29;20488;-79
2022/10/07 04:36:37;;;;;;;1.30;1.30;;;23.50;67.40;;;;;;4885519;29;20471;-77
2022/10/07 04:39:08;;;;;;;1.47;1.37;;;23.50;67.40;;;;;;4873222;29;20470;-77
2022/10/07 04:41:41;;;;;;;2.83;1.47;;;23.50;67.40;;;;;;4874370;29;20541;-77
2022/10/07 04:44:18;;;;;;;2.07;1.97;;;23.50;67.40;;;;;;4874700;29;20564;-77
2022/10/07 04:46:55;;;;;;;1.40;1.40;;;23.50;67.40;;;;;;4874743;29;20898;-78
2022/10/07 04:49:26;;;;;;;2.30;1.90;;;23.50;67.40;;;;;;4868654;29;20980;-77
2022/10/07 04:51:57;;;;;;;5.60;1.97;;;23.50;67.40;;;;;;4870195;29;20487;-77
2022/10/07 04:54:30;;;;;;;2.30;2.10;;;23.50;67.40;;;;;;4872302;29;20484;-77
2022/10/07 04:56:59;;;;;;;2.17;2.07;;;23.50;67.40;;;;;;4876745;29;20513;-77
2022/10/07 04:59:28;;;;;;;2.00;1.90;;;23.50;67.40;;;;;;4876585;29;20463;-78
2022/10/07 05:01:58;;;;;;;1.67;1.60;;;23.50;67.50;;;;;;4873180;29;20475;-77
2022/10/07 05:04:28;;;;;;;1.80;1.70;;;23.50;67.50;;;;;;4875479;29;20559;-79
2022/10/07 05:06:59;;;;;;;2.20;2.00;;;23.50;67.50;;;;;;4874356;29;20810;-78
2022/10/07 05:09:29;;;;;;;2.17;1.70;;;23.50;67.50;;;;;;4875193;29;20478;-79
2022/10/07 05:11:57;;;;;;;1.37;1.27;;;23.50;67.60;;;;;;4888478;29;20474;-78
2022/10/07 05:14:25;;;;;;;1.80;1.70;;;23.50;67.60;;;;;;4874792;29;20513;-79
2022/10/07 05:16:55;;;;;;;1.70;1.60;;;23.50;67.60;;;;;;4876414;29;20539;-79
2022/10/07 05:19:27;;;;;;;1.60;1.50;;;23.50;67.60;;;;;;4874793;29;20504;-79
2022/10/07 05:21:56;;;;;;;1.73;1.43;;;23.50;67.60;;;;;;4876511;29;20478;-78
2022/10/07 05:24:26;;;;;;;1.83;1.73;;;23.50;67.60;;;;;;4875146;29;20820;-80
2022/10/07 05:26:55;;;;;;;3.03;2.20;;;23.50;67.60;;;;;;4871895;29;20463;-79
2022/10/07 05:29:23;;;;;;;2.13;1.57;;;23.50;67.60;;;;;;4867480;29;20477;-79
2022/10/07 05:31:53;;;;;;;2.63;1.70;;;23.50;67.50;;;;;;4884803;29;20537;-79
2022/10/07 05:34:24;;;;;;;2.27;2.07;;;23.50;67.50;;;;;;4870493;29;20480;-79
2022/10/07 05:36:54;;;;;;;2.53;1.90;;;23.50;67.50;;;;;;4872742;29;20587;-79
2022/10/07 05:39:23;;;;;;;3.50;2.13;;;23.50;67.40;;;;;;4873454;29;20520;-79
2022/10/07 05:41:57;;;;;;;3.57;2.27;;;23.50;67.40;;;;;;4870033;29;20473;-79
2022/10/07 05:44:31;;;;;;;2.50;2.10;;;23.50;67.40;;;;;;4872347;29;20510;-79
2022/10/07 05:47:01;;;;;;;1.83;1.70;;;23.50;67.30;;;;;;4872242;29;20492;-79
2022/10/07 05:49:29;;;;;;;2.90;2.47;;;23.50;67.30;;;;;;4875736;29;21024;-79
2022/10/07 05:51:58;;;;;;;2.00;1.87;;;23.50;67.30;;;;;;4876745;29;20461;-79
2022/10/07 05:54:26;;;;;;;5.20;2.00;;;23.50;67.30;;;;;;4873062;29;20486;-79
2022/10/07 05:56:59;;;;;;;1.80;1.70;;;23.50;67.30;;;;;;4872794;29;20482;-79
2022/10/07 05:59:27;;;;;;;3.30;2.20;;;23.50;67.30;;;;;;4888619;29;20518;-79
2022/10/07 06:01:58;;;;;;;2.00;1.60;;;23.50;67.40;;;;;;4867480;29;20895;-79
2022/10/07 06:04:28;;;;;;;2.47;2.27;;;23.50;67.30;;;;;;4887621;29;20460;-79
2022/10/07 06:06:56;;;;;;;2.27;2.03;;;23.50;67.30;;;;;;4860281;29;20906;-79
2022/10/07 06:15:08;;;;;;;4.20;2.00;;;23.50;67.30;;;;;;4895094;29;20525;-79
2022/10/07 06:17:40;;;;;;;1.70;1.60;;;23.40;67.30;;;;;;4878052;29;20960;-78
2022/10/07 06:20:09;;;;;;;2.20;2.10;;;23.40;67.20;;;;;;4889989;29;20570;-78
2022/10/07 06:22:38;;;;;;;2.53;1.70;;;23.40;67.30;;;;;;4875580;29;20477;-78
2022/10/07 06:25:07;;;;;;;1.97;1.87;;;23.50;67.20;;;;;;4874938;29;20537;-78
2022/10/07 06:27:36;;;;;;;5.17;2.30;;;23.50;67.20;;;;;;4871486;29;20468;-78
2022/10/07 06:30:06;;;;;;;2.00;1.90;;;23.50;67.20;;;;;;4876576;29;20460;-78
2022/10/07 06:32:34;;;;;;;5.70;2.10;;;23.40;67.20;;;;;;4877223;29;20463;-78
2022/10/07 06:35:03;;;;;;;2.00;1.90;;;23.50;67.20;;;;;;4878249;29;20982;-78
2022/10/07 06:37:31;;;;;;;4.23;2.30;;;23.40;67.20;;;;;;4879848;29;20991;-78
2022/10/07 06:40:00;;;;;;;3.47;2.00;;;23.50;67.20;;;;;;4891644;29;20491;-78
2022/10/07 06:42:32;;;;;;;3.30;2.10;;;23.50;67.20;;;;;;4892166;29;20474;-78
2022/10/07 06:45:19;;;;;;;2.10;1.90;;;23.40;67.20;;;;;;4878537;29;20457;-78
2022/10/07 06:47:51;;;;;;;1.97;1.80;;;23.40;67.20;;;;;;4876763;29;20470;-79
2022/10/07 06:50:21;;;;;;;2.10;2.00;;;23.50;67.20;;;;;;4879254;29;20505;-78
2022/10/07 06:52:49;;;;;;;2.60;1.80;;;23.40;67.20;;;;;;4877285;29;20491;-78
2022/10/07 06:55:18;;;;;;;2.03;1.83;;;23.50;67.20;;;;;;4894789;29;20519;-78
2022/10/07 06:57:46;;;;;;;3.23;2.00;;;23.50;67.20;;;;;;4877582;29;20468;-78
2022/10/07 07:00:19;;;;;;;1.87;1.77;;;23.50;67.20;;;;;;4879024;29;20473;-80
2022/10/07 07:02:48;;;;;;;9.47;4.50;;;23.50;67.20;;;;;;4874243;29;20477;-79
2022/10/07 07:05:16;;;;;;;5.97;2.90;;;23.50;71.40;;;;;;4874179;29;20475;-79
2022/10/07 07:07:46;;;;;;;6.67;4.07;;;23.50;71.10;;;;;;4860391;29;20552;-78
2022/10/07 07:10:16;;;;;;;3.87;2.87;;;23.50;71.00;;;;;;4875931;29;20471;-78
2022/10/07 07:12:47;;;;;;;4.93;2.50;;;23.50;71.00;;;;;;4871227;29;20538;-79
2022/10/07 07:15:17;;;;;;;4.53;3.43;;;23.60;71.30;;;;;;4875734;29;20497;-78
2022/10/07 07:17:46;;;;;;;5.80;2.80;;;23.60;71.40;;;;;;4870954;29;20470;-80
2022/10/07 07:20:15;;;;;;;3.07;2.60;;;23.60;71.40;;;;;;4877100;29;20583;-79
2022/10/07 07:22:44;;;;;;;5.50;2.77;;;23.60;71.50;;;;;;4878457;29;20964;-80
2022/10/07 07:25:12;;;;;;;6.83;3.20;;;23.70;71.40;;;;;;4879268;29;20793;-80
2022/10/07 07:27:40;;;;;;;4.60;2.70;;;23.70;71.40;;;;;;4879638;29;20466;-80
2022/10/07 07:30:12;;;;;;;3.70;3.00;;;23.70;71.30;;;;;;4878655;29;20533;-81
2022/10/07 07:32:42;;;;;;;3.53;2.30;;;23.70;71.10;;;;;;4878612;29;20829;-80
2022/10/07 07:35:12;;;;;;;3.03;2.47;;;23.80;71.10;;;;;;4878958;29;20928;-79
2022/10/07 07:37:40;;;;;;;5.60;2.60;;;23.80;70.90;;;;;;4878628;29;20495;-82
2022/10/07 07:40:09;;;;;;;4.43;2.13;;;23.80;70.80;;;;;;4874612;29;20481;-79
2022/10/07 07:42:38;;;;;;;5.60;2.20;;;23.80;70.70;;;;;;4873872;29;20473;-78
2022/10/07 07:45:07;;;;;;;5.83;2.90;;;23.90;70.70;;;;;;4877968;29;20481;-78
2022/10/07 07:47:36;;;;;;;2.80;2.20;;;23.90;70.60;;;;;;4874062;29;20478;-79
2022/10/07 07:50:05;;;;;;;3.97;2.97;;;23.90;70.60;;;;;;4871162;29;20473;-81
2022/10/07 07:52:35;;;;;;;5.57;2.60;;;23.90;70.40;;;;;;4876093;29;20468;-80
2022/10/07 07:55:06;;;;;;;3.63;2.43;;;24.00;70.30;;;;;;4876667;29;21001;-82
2022/10/07 07:57:36;;;;;;;5.37;2.83;;;24.00;70.20;;;;;;4874140;29;20567;-80
2022/10/07 08:00:10;;;;;;;2.00;1.80;;;24.00;70.10;;;;;;4880524;29;20476;-81
2022/10/07 08:02:40;;;;;;;3.30;2.13;;;24.00;69.90;;;;;;4878837;29;20476;-79
2022/10/07 08:05:13;;;;;;;5.53;2.97;;;24.00;69.90;;;;;;4878017;29;20478;-79
2022/10/07 08:07:42;;;;;;;2.90;2.00;;;24.00;69.80;;;;;;4885399;29;20964;-80
2022/10/07 08:10:11;;;;;;;5.00;2.00;;;24.10;69.70;;;;;;4875795;29;20474;-81
2022/10/07 08:12:39;;;;;;;3.90;2.00;;;24.10;69.60;;;;;;4877343;29;20514;-81
2022/10/07 08:15:09;;;;;;;2.97;2.23;;;24.10;69.40;;;;;;4873361;29;20526;-78
2022/10/07 08:17:38;;;;;;;3.47;1.83;;;24.10;69.40;;;;;;4878020;29;20487;-80
2022/10/07 08:20:09;;;;;;;2.50;2.07;;;24.10;69.30;;;;;;4877582;29;20831;-80
2022/10/07 08:22:38;;;;;;;4.47;2.03;;;24.10;69.30;;;;;;4874834;29;20978;-81
2022/10/07 08:25:09;;;;;;;2.33;2.13;;;24.20;69.20;;;;;;4876401;29;20976;-78
2022/10/07 08:27:37;;;;;;;3.17;1.90;;;24.20;69.10;;;;;;4877857;29;20459;-79
2022/10/07 08:30:07;;;;;;;2.87;2.10;;;24.20;69.20;;;;;;4877487;29;20562;-78
2022/10/07 08:32:36;;;;;;;4.77;2.20;;;24.20;69.10;;;;;;4876905;29;20508;-79
2022/10/07 08:35:05;;;;;;;2.53;2.33;;;24.20;69.10;;;;;;4877411;29;20483;-81
2022/10/07 08:37:33;;;;;;;2.23;2.00;;;24.30;69.00;;;;;;4878460;29;20985;-81
2022/10/07 08:40:01;;;;;;;2.87;1.73;;;24.30;68.70;;;;;;4877396;29;20476;-79
2022/10/07 08:42:36;;;;;;;3.13;2.20;;;24.30;68.50;;;;;;4877547;29;20459;-80
2022/10/07 08:45:07;;;;;;;4.30;2.03;;;24.30;68.60;;;;;;4878108;29;20511;-81
2022/10/07 08:47:39;;;;;;;1.70;1.60;;;24.30;68.70;;;;;;4872717;29;20457;-81
2022/10/07 08:50:12;;;;;;;3.30;1.87;;;24.30;68.60;;;;;;4878821;29;20972;-80
2022/10/07 08:52:51;;;;;;;2.43;2.23;;;24.40;68.60;;;;;;4879225;29;20459;-79
2022/10/07 08:55:26;;;;;;;2.20;1.90;;;24.40;68.60;;;;;;4879321;29;20490;-79
2022/10/07 08:58:19;;;;;;;2.23;1.73;;;24.40;68.60;;;;;;4878351;29;20464;-79
2022/10/07 09:00:52;;;;;;;3.30;1.90;;;24.40;68.50;;;;;;4878928;29;20481;-81
2022/10/07 09:03:36;;;;;;;2.73;1.57;;;24.40;68.50;;;;;;4877535;29;20472;-81
2022/10/07 09:06:12;;;;;;;2.90;1.83;;;24.40;68.60;;;;;;4878634;29;20822;-81
2022/10/07 09:08:45;;;;;;;2.50;2.13;;;24.40;68.50;;;;;;4878387;29;20869;-79
2022/10/07 09:11:24;;;;;;;2.50;2.30;;;24.50;68.50;;;;;;4879175;29;20435;-79
2022/10/07 09:13:59;;;;;;;3.20;2.03;;;24.50;68.50;;;;;;4879205;29;20907;-79
2022/10/07 09:16:32;;;;;;;3.50;2.10;;;24.50;68.30;;;;;;4877714;29;20578;-81
2022/10/07 09:19:02;;;;;;;2.00;1.80;;;24.50;68.20;;;;;;4878421;29;20494;-80
2022/10/07 09:21:36;;;;;;;5.37;2.17;;;24.50;68.20;;;;;;4884668;29;20816;-79
2022/10/07 09:24:17;;;;;;;2.33;2.00;;;24.50;68.10;;;;;;4879822;29;20459;-79
2022/10/07 09:26:45;;;;;;;3.00;1.70;;;24.60;68.10;;;;;;4878783;29;20448;-79
2022/10/07 09:29:19;;;;;;;2.53;2.33;;;24.60;68.00;;;;;;4877827;29;20448;-81
2022/10/07 09:31:48;;;;;;;2.03;1.83;;;24.60;67.80;;;;;;4857637;29;20908;-81
2022/10/07 09:34:21;;;;;;;2.13;1.90;;;24.60;67.70;;;;;;4875116;29;20575;-82
2022/10/07 09:37:15;;;;;;;3.80;1.83;;;24.60;67.50;;;;;;4878605;29;20475;-79
2022/10/07 09:39:45;;;;;;;2.30;1.90;;;24.60;67.60;;;;;;4873686;29;20972;-79
2022/10/07 09:42:35;;;;;;;3.13;2.20;;;24.70;67.60;;;;;;4877366;29;20977;-80
2022/10/07 09:45:18;;;;;;;4.20;2.07;;;24.70;67.60;;;;;;4877134;29;20539;-80
2022/10/07 09:47:52;;;;;;;2.37;2.13;;;24.70;67.60;;;;;;4877277;29;20484;-80
2022/10/07 09:50:33;;;;;;;3.13;2.83;;;24.70;67.60;;;;;;4880475;29;20499;-81
2022/10/07 09:53:02;;;;;;;2.63;2.20;;;24.70;67.70;;;;;;4881423;29;20449;-80
2022/10/07 09:55:36;;;;;;;2.03;1.90;;;24.70;67.70;;;;;;4881041;29;20457;-81
2022/10/07 09:58:06;;;;;;;2.30;2.20;;;24.70;67.70;;;;;;4882525;29;20443;-79
2022/10/07 10:00:43;;;;;;;2.10;1.90;;;24.70;67.70;;;;;;4881648;29;20444;-79
2022/10/07 10:03:12;;;;;;;2.33;2.10;;;24.80;67.80;;;;;;4881882;29;20433;-79
2022/10/07 10:05:50;;;;;;;2.80;2.03;;;24.80;67.80;;;;;;4881473;29;20432;-80
2022/10/07 10:08:24;;;;;;;3.20;2.30;;;24.80;67.80;;;;;;4882665;29;20440;-80
2022/10/07 10:10:54;;;;;;;2.10;2.00;;;24.80;67.80;;;;;;4881862;29;20443;-79
2022/10/07 10:13:28;;;;;;;3.00;2.57;;;24.80;67.80;;;;;;4882204;29;20983;-81
2022/10/07 10:15:59;;;;;;;2.50;2.30;;;24.90;67.90;;;;;;4879689;29;20515;-81
2022/10/07 10:18:36;;;;;;;2.37;2.27;;;24.90;67.90;;;;;;4881371;29;20480;-81
2022/10/07 10:21:26;;;;;;;1.90;1.80;;;24.90;67.90;;;;;;4868439;29;20944;-80
2022/10/07 10:23:57;;;;;;;2.23;2.03;;;24.90;67.90;;;;;;4867384;29;20457;-80
2022/10/07 10:26:35;;;;;;;2.33;2.13;;;24.90;67.70;;;;;;4863368;29;20462;-81
2022/10/07 10:29:12;;;;;;;3.20;1.87;;;24.90;67.70;;;;;;4862994;29;20445;-81
2022/10/07 10:32:04;;;;;;;2.30;2.10;;;25.00;67.70;;;;;;4874148;29;20460;-82
2022/10/07 10:34:41;;;;;;;3.47;2.10;;;25.00;67.60;;;;;;4877699;29;20450;-81
2022/10/07 10:37:17;;;;;;;3.10;1.93;;;25.00;67.50;;;;;;4873842;29;20476;-79
2022/10/07 10:39:57;;;;;;;4.00;2.87;;;25.00;67.40;;;;;;4880101;29;20478;-79
2022/10/07 10:42:35;;;;;;;2.07;1.90;;;25.10;67.40;;;;;;4879631;29;20468;-79
2022/10/07 10:45:15;;;;;;;3.67;2.77;;;25.10;67.30;;;;;;4881175;29;20472;-81
2022/10/07 10:47:59;;;;;;;2.67;2.47;;;25.20;67.20;;;;;;4887069;29;20550;-81
2022/10/07 10:50:34;;;;;;;2.30;2.20;;;25.20;67.00;;;;;;4881085;29;20508;-80
2022/10/07 10:53:15;;;;;;;2.23;2.03;;;25.20;66.90;;;;;;4880428;29;20456;-80
2022/10/07 10:56:13;;;;;;;2.10;1.90;;;25.30;66.80;;;;;;4880261;29;20949;-80
2022/10/07 10:58:56;;;;;;;4.40;2.20;;;25.30;66.80;;;;;;4880076;29;20469;-81
2022/10/07 11:01:32;;;;;;;2.70;1.80;;;25.30;66.70;;;;;;4881253;29;20472;-80
2022/10/07 11:04:24;;;;;;;2.57;2.37;;;25.30;66.70;;;;;;4878497;29;20449;-80
2022/10/07 11:06:58;;;;;;;2.47;2.27;;;25.30;66.60;;;;;;4877153;29;20485;-80
2022/10/07 11:09:33;;;;;;;2.53;2.37;;;25.30;66.70;;;;;;4874703;29;20462;-81
2022/10/07 11:12:04;;;;;;;3.23;2.43;;;25.20;66.80;;;;;;4881134;29;20465;-81
2022/10/07 11:14:47;;;;;;;2.13;1.93;;;25.20;66.90;;;;;;4876057;29;20450;-81
2022/10/07 11:17:16;;;;;;;2.83;2.03;;;25.10;67.00;;;;;;4880386;29;20477;-79
2022/10/07 11:19:54;;;;;;;2.53;2.33;;;25.10;67.10;;;;;;4879959;29;20498;-80
2022/10/07 11:22:34;;;;;;;3.70;2.50;;;25.10;67.10;;;;;;4880310;29;20467;-80
2022/10/07 11:25:13;;;;;;;2.70;2.50;;;25.10;67.10;;;;;;4879732;29;20472;-79
2022/10/07 11:27:45;;;;;;;2.60;2.40;;;25.10;67.20;;;;;;4880927;29;20959;-80
2022/10/07 11:30:18;;;;;;;2.37;2.17;;;25.10;67.10;;;;;;4880060;29;20462;-80
2022/10/07 11:32:54;;;;;;;2.67;2.13;;;25.00;67.10;;;;;;4879772;29;20450;-80
2022/10/07 11:35:30;;;;;;;3.00;2.63;;;25.00;67.10;;;;;;4879753;29;20459;-81
2022/10/07 11:38:03;;;;;;;2.20;2.10;;;25.00;67.10;;;;;;4876184;29;20976;-81
2022/10/07 11:40:34;;;;;;;4.13;2.40;;;25.00;67.10;;;;;;4871946;29;20457;-81
2022/10/07 11:43:07;;;;;;;2.40;2.23;;;25.00;67.20;;;;;;4877192;29;20480;-81
2022/10/07 11:45:41;;;;;;;2.13;1.90;;;24.90;67.20;;;;;;4867830;29;21215;-81
2022/10/07 11:48:14;;;;;;;2.50;2.40;;;24.90;67.10;;;;;;4875749;29;20509;-81
2022/10/07 11:50:51;;;;;;;2.70;2.50;;;24.90;67.00;;;;;;4876666;29;20470;-82
2022/10/07 11:53:24;;;;;;;2.33;2.20;;;24.90;66.90;;;;;;4876497;29;20801;-81
2022/10/07 11:55:59;;;;;;;2.73;2.50;;;24.90;66.90;;;;;;4875838;29;20470;-81
2022/10/07 11:58:31;;;;;;;2.77;2.43;;;24.90;66.80;;;;;;4875030;29;20904;-81
2022/10/07 12:01:39;;;;;;;2.43;2.23;;;24.90;66.70;;;;;;4879129;29;20463;-81
2022/10/07 12:04:37;;;;;;;3.17;2.87;;;24.90;66.80;;;;;;4864928;29;20531;-82
2022/10/07 12:07:35;;;;;;;2.57;2.37;;;24.80;66.90;;;;;;4871319;29;20549;-81
2022/10/07 12:10:28;;;;;;;3.00;2.80;;;24.80;66.80;;;;;;4878721;29;20465;-81
2022/10/07 12:12:59;;;;;;;2.80;2.60;;;24.80;66.80;;;;;;4879241;29;20952;-80
2022/10/07 12:15:37;;;;;;;2.40;2.30;;;24.80;66.80;;;;;;4879292;29;20438;-81
2022/10/07 12:18:27;;;;;;;2.80;2.60;;;24.70;66.80;;;;;;4875722;29;20508;-81
2022/10/07 12:21:08;;;;;;;3.27;3.07;;;24.70;66.70;;;;;;4882459;29;20474;-81
2022/10/07 12:23:46;;;;;;;3.00;2.80;;;24.70;66.70;;;;;;4874847;29;20470;-80
2022/10/07 12:26:44;;;;;;;2.77;2.57;;;24.70;66.80;;;;;;4876637;29;20494;-80
2022/10/07 12:29:35;;;;;;;3.27;2.70;;;24.70;66.80;;;;;;4872846;29;20559;-80
2022/10/07 12:32:03;;;;;;;2.70;2.50;;;24.70;66.70;;;;;;4877264;29;20461;-79
2022/10/07 12:34:42;;;;;;;3.50;3.20;;;24.70;66.70;;;;;;4872628;29;20552;-80
2022/10/07 12:37:36;;;;;;;4.70;3.17;;;24.60;66.70;;;;;;4871130;29;20977;-80
2022/10/07 12:40:15;;;;;;;2.63;2.50;;;24.60;66.70;;;;;;4877220;29;20482;-80
2022/10/07 12:42:50;;;;;;;3.10;2.67;;;24.60;66.70;;;;;;4875351;29;20452;-80
2022/10/07 12:45:21;;;;;;;3.00;2.80;;;24.60;66.70;;;;;;4871128;29;20464;-80
2022/10/07 12:47:54;;;;;;;3.90;3.50;;;24.60;66.80;;;;;;4871891;29;20531;-80
2022/10/07 12:50:25;;;;;;;3.20;3.00;;;24.60;66.70;;;;;;4875710;29;20800;-81
2022/10/07 12:52:55;;;;;;;3.00;2.80;;;24.60;66.70;;;;;;4873051;29;20465;-81
2022/10/07 12:55:31;;;;;;;3.70;3.40;;;24.60;66.70;;;;;;4870441;29;20548;-80
2022/10/07 13:00:53;;;;;;;3.60;3.30;;;24.60;67.30;;;;;;4876786;29;20468;-80
2022/10/07 13:03:55;;;;;;;2.70;2.50;;;24.50;67.40;;;;;;4877425;29;20911;-79
2022/10/07 13:06:51;;;;;;;3.53;3.23;;;24.60;67.60;;;;;;4876466;29;20469;-80
2022/10/07 13:09:57;;;;;;;4.07;3.70;;;24.50;67.60;;;;;;4867284;29;20485;-78
2022/10/07 13:12:35;;;;;;;3.00;2.77;;;24.60;67.70;;;;;;4871313;29;20458;-79
2022/10/07 13:15:30;;;;;;;2.80;2.60;;;24.60;67.80;;;;;;4875958;29;20472;-79
2022/10/07 13:18:04;;;;;;;3.17;2.90;;;24.60;67.80;;;;;;4875233;29;20479;-80
2022/10/07 13:20:46;;;;;;;4.53;3.77;;;24.60;67.70;;;;;;4876346;29;21017;-81
2022/10/07 13:23:16;;;;;;;3.50;3.30;;;24.60;67.70;;;;;;4876247;29;20493;-80
2022/10/07 13:25:52;;;;;;;3.33;3.10;;;24.60;67.70;;;;;;4875938;29;20485;-79
2022/10/07 13:28:24;;;;;;;3.30;3.00;;;24.70;67.70;;;;;;4874269;29;20468;-80
2022/10/07 13:30:53;;;;;;;3.40;3.20;;;24.70;67.70;;;;;;4867509;29;20466;-79
2022/10/07 13:33:25;;;;;;;3.63;3.33;;;24.70;67.70;;;;;;4873995;29;20474;-80
2022/10/07 13:36:06;;;;;;;3.33;3.13;;;24.70;67.80;;;;;;4877257;29;20452;-82